ADDS METAR Data INFO
IDs: Format: Raw Decoded Include TAF

Data at: 0758 UTC 23 Jul 2018

KVTI 230755Z AUTO 00000KT 3SM BR 18/17 A3001 RMK AO2 SKY OBSCURED T01760172
KVTI 230735Z AUTO 31003KT 4SM BR CLR 18/17 A3001 RMK AO2 T01780174
KVTI 230715Z AUTO 00000KT 4SM BR CLR 18/18 A3001 RMK AO2 T01810177
KVTI 230655Z AUTO 00000KT 7SM CLR 18/18 A3001 RMK AO2 T01830179
KVTI 230635Z AUTO 00000KT 7SM CLR 18/18 A3001 RMK AO2 T01810177
KVTI 230615Z AUTO 00000KT 7SM CLR 18/18 A3002 RMK AO2 T01840180
KVTI 230555Z AUTO 00000KT 7SM CLR 18/18 A3003 RMK AO2 T01810176 10258 20181 402580167
KVTI 230535Z AUTO 00000KT 5SM BR CLR 19/18 A3003 RMK AO2 T01880183
KVTI 230515Z AUTO 30003KT 7SM CLR 19/18 A3003 RMK AO2 T01880183
KVTI 230455Z AUTO 29003KT 7SM CLR 19/18 A3003 RMK AO2 T01880183
KVTI 230435Z AUTO 29005KT 7SM CLR 19/18 A3003 RMK AO2 T01880182
KVTI 230415Z AUTO 30004KT 5SM BR CLR 19/18 A3003 RMK AO2 T01880181
KVTI 230355Z AUTO 00000KT 10SM CLR 20/18 A3002 RMK AO2 T01980183
KVTI 230335Z AUTO 00000KT 10SM CLR 22/19 A3002 RMK AO2 T02160194
KVTI 230315Z AUTO 00000KT 10SM CLR 22/20 A3001 RMK AO2 T02160197
KVTI 230255Z AUTO 00000KT 10SM CLR 22/19 A3002 RMK AO2 T02150193
KVTI 230235Z AUTO 35003KT 10SM CLR 22/19 A3001 RMK AO2 T02160188
KVTI 230215Z AUTO 02004KT 10SM CLR 22/19 A3000 RMK AO2 T02160186
KVTI 230155Z AUTO 36004KT 10SM CLR 22/19 A3000 RMK AO2 T02160185
KVTI 230135Z AUTO 36003KT 10SM CLR 22/18 A3000 RMK AO2 T02230184
KVTI 230115Z AUTO 34004KT 10SM CLR 24/19 A3000 RMK AO2 T02350188
KVTI 230055Z AUTO 35004KT 10SM SCT026 SCT036 SCT060 25/19 A3000 RMK AO2 T02450192
KVTI 230035Z AUTO 01005KT 10SM BKN028 BKN036 BKN060 25/18 A3000 RMK AO2 T02450184
KVTI 230015Z AUTO 03006KT 10SM BKN028 BKN038 BKN060 25/18 A3000 RMK AO2 T02450180
KVTI 222355Z AUTO 35005KT 10SM SCT028 SCT038 BKN060 25/18 A3000 RMK AO2 T02520184 10257 20245
KVTI 222335Z AUTO 36005KT 10SM SCT050 25/18 A3000 RMK AO2 T02450181
KVTI 222315Z AUTO 36005KT 10SM SCT050 25/18 A3000 RMK AO2 T02450177
KVTI 222255Z AUTO 01009KT 10SM SCT048 25/18 A3000 RMK AO2 T02450178
KVTI 222235Z AUTO 01007KT 10SM SCT048 25/18 A3000 RMK AO2 T02450175
KVTI 222215Z AUTO 01009KT 10SM BKN046 25/18 A3000 RMK AO2 T02450176
KVTI 222155Z AUTO 36007KT 10SM BKN044 25/18 A3000 RMK AO2 T02450178
KVTI 222135Z AUTO 36008KT 10SM BKN042 25/18 A3000 RMK AO2 T02450177
KVTI 222115Z AUTO 35008KT 10SM BKN042 25/17 A3000 RMK AO2 T02450174
KVTI 222055Z AUTO 01008KT 10SM BKN044 25/18 A3000 RMK AO2 T02480178
KVTI 222035Z AUTO 34006KT 10SM OVC039 25/18 A3000 RMK AO2 T02450177
KVTI 222015Z AUTO 02008KT 10SM OVC036 25/17 A3000 RMK AO2 T02450172
KVTI 221955Z AUTO 02009KT 10SM SCT026 OVC036 25/17 A3000 RMK AO2 T02450172
KVTI 221935Z AUTO 36009KT 10SM SCT026 OVC033 25/18 A3000 RMK AO2 T02450177
KVTI 221915Z AUTO 36007G15KT 340V040 10SM BKN027 BKN034 25/17 A3000 RMK AO2 T02450171
KVTI 221855Z AUTO 36010KT 10SM SCT029 25/18 A2999 RMK AO2 T02500177
KVTI 221835Z AUTO 36008KT 10SM SCT024 BKN030 25/17 A3000 RMK AO2 T02450172
KVTI 221815Z AUTO 36006KT 10SM SCT022 BKN030 25/18 A3000 RMK AO2 T02450180
KVTI 221755Z AUTO 35008KT 10SM BKN022 BKN026 25/18 A3000 RMK AO2 T02450182 10245 20176
KVTI 221735Z AUTO 33008KT 10SM BKN022 24/18 A3000 RMK AO2 T02440181
KVTI 221715Z AUTO 33009KT 10SM BKN022 23/18 A3000 RMK AO2 T02320176
KVTI 221655Z AUTO 35012KT 10SM BKN020 OVC025 23/17 A3000 RMK AO2 T02250173
KVTI 221635Z AUTO 35010KT 10SM OVC018 22/17 A3000 RMK AO2 T02160165
KVTI 221615Z AUTO 35009KT 10SM OVC018 23/17 A3000 RMK AO2 T02280172
KVTI 221555Z AUTO 01009KT 10SM OVC018 22/17 A3000 RMK AO2 T02160166
KVTI 221535Z AUTO 02008KT 10SM OVC016 22/17 A3000 RMK AO2 T02160173
KVTI 221515Z AUTO 35010KT 10SM OVC014 22/17 A3000 RMK AO2 T02160171
KVTI 221455Z AUTO 36007KT 10SM OVC014 22/18 A3000 RMK AO2 T02160176
KVTI 221435Z AUTO 01009KT 10SM OVC014 22/18 A3001 RMK AO2 T02160176
KVTI 221415Z AUTO 01010KT 10SM OVC012 22/18 A3002 RMK AO2 T02160179
KVTI 221355Z AUTO 01007KT 10SM OVC012 20/17 A3002 RMK AO2 T02020171
KVTI 221335Z AUTO 36008KT 10SM OVC012 20/17 A3002 RMK AO2 T02020173
KVTI 221315Z AUTO 36007KT 10SM OVC012 19/16 A3002 RMK AO2 T01880162
KVTI 221255Z AUTO 36010G14KT 10SM OVC012 19/16 A3002 RMK AO2 T01880162
KVTI 221235Z AUTO 36006KT 10SM OVC012 19/17 A3001 RMK AO2 T01880166
KVTI 221215Z AUTO 02008KT 10SM OVC012 18/16 A3001 RMK AO2 T01810163
KVTI 221155Z AUTO 01009KT 10SM OVC012 18/16 A3001 RMK AO2 T01760162 10189 20167
KVTI 221135Z AUTO 36009KT 7SM OVC012 18/17 A3001 RMK AO2 T01750166
KVTI 221115Z AUTO 36007KT 7SM BKN014 18/17 A3000 RMK AO2 T01750168
KVTI 221055Z AUTO 35006KT 7SM SCT014 17/16 A3000 RMK AO2 T01670162
KVTI 221035Z AUTO 34005KT 7SM CLR 17/16 A3000 RMK AO2 T01670161
KVTI 221015Z AUTO 33005KT 7SM CLR 17/16 A2999 RMK AO2 T01670161
KVTI 220955Z AUTO 34005KT 10SM CLR 17/16 A2998 RMK AO2 T01670161
KVTI 220935Z AUTO 34005KT 10SM CLR 17/17 A2998 RMK AO2 T01720166
KVTI 220915Z AUTO 33005KT 10SM CLR 18/17 A2999 RMK AO2 T01750168
KVTI 220855Z AUTO 32006KT 10SM CLR 18/17 A2999 RMK AO2 T01750167
KVTI 220835Z AUTO 34005KT 10SM CLR 18/17 A2998 RMK AO2 T01750165
KVTI 220815Z AUTO 34005KT 10SM CLR 18/17 A2997 RMK AO2 T01770166
KVTI 220755Z AUTO 35004KT 10SM CLR 18/17 A2997 RMK AO2 T01800170
KVTI 220735Z AUTO 36007KT 10SM CLR 18/17 A2998 RMK AO2 T01820171
KVTI 220715Z AUTO 35007KT 10SM CLR 18/17 A2999 RMK AO2 T01810169
KVTI 220655Z AUTO 34005KT 10SM CLR 18/17 A2999 RMK AO2 T01840173
KVTI 220635Z AUTO 31004KT 10SM CLR 19/17 A2999 RMK AO2 T01880170
KVTI 220615Z AUTO 31003KT 10SM CLR 19/17 A2999 RMK AO2 T01880165
KVTI 220555Z AUTO 34005KT 10SM CLR 19/17 A2999 RMK AO2 T01880165 10272 20188 402730181
KVTI 220535Z AUTO 35005KT 10SM CLR 20/18 A2998 RMK AO2 T02020175
KVTI 220515Z AUTO 34005KT 10SM CLR 20/17 A2999 RMK AO2 T02020173
KVTI 220455Z AUTO 35005KT 10SM CLR 20/17 A2999 RMK AO2 T02030173
KVTI 220435Z AUTO 35006KT 10SM CLR 22/18 A2999 RMK AO2 T02160182
KVTI 220415Z AUTO 35006KT 10SM CLR 22/18 A2999 RMK AO2 T02160175
KVTI 220355Z AUTO 36007KT 10SM CLR 22/17 A2999 RMK AO2 T02160167
KVTI 220335Z AUTO 35007KT 10SM CLR 22/17 A2998 RMK AO2 T02160170
KVTI 220315Z AUTO 35009KT 10SM CLR 22/17 A2998 RMK AO2 T02220169
KVTI 220255Z AUTO 35007KT 10SM SCT039 SCT045 22/18 A2998 RMK AO2 T02170175
KVTI 220235Z AUTO 33006KT 10SM SCT039 SCT045 23/18 A2997 RMK AO2 T02300182
KVTI 220215Z AUTO 34005KT 10SM CLR 23/18 A2997 RMK AO2 T02300180
KVTI 220155Z AUTO 34005KT 10SM CLR 25/19 A2996 RMK AO2 T02450186
KVTI 220135Z AUTO 34006KT 10SM CLR 25/18 A2996 RMK AO2 T02450180
KVTI 220115Z AUTO 34007KT 10SM CLR 25/17 A2995 RMK AO2 T02460173
KVTI 220055Z AUTO 33007KT 10SM SCT042 26/18 A2995 RMK AO2 T02580179
KVTI 220035Z AUTO 34007KT 10SM CLR 26/17 A2994 RMK AO2 T02580172
KVTI 220015Z AUTO 33009G15KT 10SM CLR 26/17 A2994 RMK AO2 T02580172
KVTI 212355Z AUTO 34010KT 10SM SCT039 27/18 A2994 RMK AO2 T02720180 10273 20245
KVTI 212335Z AUTO 33009KT 10SM SCT039 27/18 A2994 RMK AO2 T02720181
KVTI 212315Z AUTO 33011KT 10SM CLR 27/18 A2994 RMK AO2 T02720181
KVTI 212255Z AUTO 34013G16KT 10SM SCT037 SCT048 27/19 A2994 RMK AO2 T02720186
KVTI 212235Z AUTO 34013KT 10SM SCT036 SCT044 27/18 A2994 RMK AO2 T02720183
KVTI 212215Z AUTO 33012G15KT 10SM SCT034 27/19 A2994 RMK AO2 T02720190
KVTI 212155Z AUTO 32013G16KT 10SM SCT034 SCT041 27/19 A2994 RMK AO2 T02720187
KVTI 212135Z AUTO 33011G15KT 10SM SCT032 SCT041 27/19 A2994 RMK AO2 T02720189
KVTI 212115Z AUTO 33010KT 10SM SCT032 SCT039 27/19 A2994 RMK AO2 T02730187
KVTI 212055Z AUTO 32011KT 10SM SCT030 SCT120 27/19 A2994 RMK AO2 T02720190
KVTI 212035Z AUTO 31010G16KT 10SM CLR 27/19 A2994 RMK AO2 T02720190
KVTI 212015Z AUTO 33011G16KT 10SM SCT027 SCT033 SCT044 27/19 A2994 RMK AO2 T02660192